createdAt,value
2023-04-05T00:00:39.965Z,14.16
2023-04-05T00:05:44.005Z,14.29
2023-04-05T00:10:47.677Z,14.06
2023-04-05T00:15:52.953Z,13.90
2023-04-05T00:20:56.537Z,13.74
2023-04-05T00:26:00.196Z,13.78
2023-04-05T00:31:05.863Z,13.54
2023-04-05T00:36:14.643Z,13.56
2023-04-05T00:41:18.355Z,13.41
2023-04-05T00:46:23.689Z,13.46
2023-04-05T00:51:27.414Z,13.52
2023-04-05T00:56:32.037Z,13.22
2023-04-05T01:01:41.698Z,13.06
2023-04-05T01:07:07.667Z,12.72
2023-04-05T01:12:17.792Z,12.78
2023-04-05T01:17:24.227Z,12.77
2023-04-05T01:22:58.195Z,12.82
2023-04-05T01:28:24.346Z,12.81
2023-04-05T01:33:38.668Z,12.11
2023-04-05T01:38:44.332Z,11.77
2023-04-05T01:43:48.952Z,11.65
2023-04-05T01:48:56.102Z,11.51
2023-04-05T01:53:59.683Z,11.14
2023-04-05T01:59:03.440Z,10.82
2023-04-05T02:04:08.784Z,10.66
2023-04-05T02:09:12.473Z,10.26
2023-04-05T02:14:16.082Z,10.35
2023-04-05T02:19:22.162Z,10.12
2023-04-05T02:24:25.828Z,10.30
2023-04-05T02:29:29.696Z,10.00
2023-04-05T02:34:34.913Z,9.88
2023-04-05T02:39:38.536Z,9.71
2023-04-05T02:44:42.277Z,9.55
2023-04-05T02:49:47.560Z,9.65
2023-04-05T02:54:51.189Z,9.75
2023-04-05T02:59:54.786Z,9.83
2023-04-05T03:05:00.046Z,9.47
2023-04-05T03:10:03.647Z,9.67
2023-04-05T03:15:08.388Z,9.46
2023-04-05T03:20:14.502Z,9.40
2023-04-05T03:25:18.517Z,9.44
2023-04-05T03:30:22.516Z,9.47
2023-04-05T03:35:27.887Z,9.64
2023-04-05T03:40:31.590Z,9.54
2023-04-05T03:45:35.352Z,9.76
2023-04-05T03:50:40.689Z,9.83
2023-04-05T03:55:45.735Z,9.77
2023-04-05T04:00:49.299Z,9.51
2023-04-05T04:05:54.653Z,9.30
2023-04-05T04:10:58.389Z,9.40
2023-04-05T04:16:02.265Z,9.27
2023-04-05T04:21:08.595Z,9.22
2023-04-05T04:26:11.396Z,9.23
2023-04-05T04:31:15.084Z,9.41
2023-04-05T04:36:20.390Z,9.36
2023-04-05T04:41:23.987Z,9.33
2023-04-05T04:46:27.588Z,9.42
2023-04-05T04:51:32.936Z,9.57
2023-04-05T04:56:36.516Z,9.34
2023-04-05T05:01:40.123Z,9.27
2023-04-05T05:06:46.357Z,9.26
2023-04-05T05:11:49.984Z,9.35
2023-04-05T05:16:53.607Z,9.48
2023-04-05T05:22:00.685Z,9.52
2023-04-05T05:27:04.348Z,9.42
2023-04-05T05:32:08.014Z,9.31
2023-04-05T05:37:13.430Z,9.38
2023-04-05T05:42:17.060Z,9.47
2023-04-05T05:47:20.826Z,9.40
2023-04-05T05:52:26.242Z,9.42
2023-04-05T05:57:29.864Z,9.45
2023-04-05T06:02:33.537Z,9.49
2023-04-05T06:07:39.450Z,9.42
2023-04-05T06:12:43.064Z,9.38
2023-04-05T06:17:46.732Z,9.42
2023-04-05T06:22:51.963Z,9.52
2023-04-05T06:27:55.580Z,9.45
2023-04-05T06:32:59.294Z,9.45
2023-04-05T06:38:04.571Z,9.51
2023-04-05T06:43:08.181Z,9.40
2023-04-05T06:48:11.806Z,9.35
2023-04-05T06:53:17.141Z,9.32
2023-04-05T06:58:20.743Z,9.42
2023-04-05T07:03:24.371Z,9.35
2023-04-05T07:08:30.100Z,9.26
2023-04-05T07:13:33.828Z,9.32
2023-04-05T07:18:37.390Z,9.29
2023-04-05T07:23:43.546Z,9.36
2023-04-05T07:28:47.191Z,9.17
2023-04-05T07:33:50.853Z,9.14
2023-04-05T07:38:56.112Z,8.84
2023-04-05T07:43:59.946Z,8.63
2023-04-05T07:49:03.524Z,8.62
2023-04-05T07:54:08.822Z,8.39
2023-04-05T07:59:14.947Z,8.19
2023-04-05T08:04:19.194Z,8.19
2023-04-05T08:09:25.388Z,8.16
2023-04-05T08:14:29.015Z,8.03
2023-04-05T08:19:32.624Z,7.87
2023-04-05T08:24:38.022Z,7.74
2023-04-05T08:29:41.669Z,7.68
2023-04-05T08:34:45.310Z,7.69
2023-04-05T08:39:50.715Z,7.63
2023-04-05T08:44:55.831Z,7.47
2023-04-05T08:50:02.555Z,7.40
2023-04-05T08:55:09.595Z,7.40
2023-04-05T09:00:14.098Z,7.26
2023-04-05T09:05:19.864Z,7.26
2023-04-05T09:10:26.727Z,7.25
2023-04-05T09:15:30.638Z,7.19
2023-04-05T09:20:34.382Z,7.15
2023-04-05T09:25:40.894Z,7.19
2023-04-05T09:30:47.984Z,7.20
2023-04-05T09:35:51.969Z,7.16
2023-04-05T09:40:57.279Z,7.07
2023-04-05T09:46:01.043Z,7.05
2023-04-05T09:51:12.474Z,7.00
2023-04-05T09:56:19.610Z,6.95
2023-04-05T10:01:22.524Z,6.91
2023-04-05T10:06:35.209Z,6.88
2023-04-05T10:11:40.656Z,6.87
2023-04-05T10:16:52.435Z,6.80
2023-04-05T10:21:58.343Z,6.75
2023-04-05T10:27:06.692Z,6.71
2023-04-05T10:32:18.993Z,6.70
2023-04-05T10:37:31.327Z,6.72
2023-04-05T10:42:42.642Z,6.74
2023-04-05T10:47:51.758Z,6.67
2023-04-05T10:52:56.993Z,6.59
2023-04-05T10:58:04.539Z,6.59
2023-04-05T11:03:08.320Z,6.58
2023-04-05T11:08:13.266Z,6.57
2023-04-05T11:13:18.528Z,6.57
2023-04-05T11:18:22.885Z,6.48
2023-04-05T11:23:26.559Z,6.33
2023-04-05T11:28:36.903Z,6.23
2023-04-05T11:33:57.355Z,6.22
2023-04-05T11:39:25.467Z,6.33
2023-04-05T11:44:31.575Z,6.22
2023-04-05T11:49:35.563Z,6.12
2023-04-05T11:54:39.213Z,6.03
2023-04-05T11:59:44.660Z,6.08
2023-04-05T12:04:55.320Z,6.01
2023-04-05T12:10:00.927Z,5.89
2023-04-05T12:15:07.650Z,5.87
2023-04-05T12:20:12.650Z,5.78
2023-04-05T12:25:16.864Z,5.76
2023-04-05T12:30:23.527Z,5.63
2023-04-05T12:35:30.772Z,5.69
2023-04-05T12:40:35.981Z,5.63
2023-04-05T12:45:41.595Z,5.62
2023-04-05T12:50:46.243Z,5.61
2023-04-05T12:55:50.908Z,5.62
2023-04-05T13:00:56.272Z,5.49
2023-04-05T13:05:59.971Z,5.33
2023-04-05T13:11:03.641Z,5.42
2023-04-05T13:16:10.348Z,5.27
2023-04-05T13:21:14.034Z,5.28
2023-04-05T13:26:17.683Z,5.35
2023-04-05T13:31:23.050Z,5.28
2023-04-05T13:36:26.726Z,5.19
2023-04-05T13:41:30.334Z,5.21
2023-04-05T13:46:35.703Z,5.21
2023-04-05T13:51:39.411Z,5.07
2023-04-05T13:56:43.738Z,5.19
2023-04-05T14:01:49.299Z,5.18
2023-04-05T14:06:52.983Z,5.23
2023-04-05T14:11:56.633Z,5.34
2023-04-05T14:17:01.963Z,5.31
2023-04-05T14:22:05.845Z,5.58
2023-04-05T14:27:09.517Z,5.90
2023-04-05T14:32:14.813Z,6.12
2023-04-05T14:37:19.125Z,6.27
2023-04-05T14:42:22.739Z,6.71
2023-04-05T14:47:28.344Z,8.15
2023-04-05T14:52:32.120Z,9.03
2023-04-05T14:57:35.747Z,8.81
2023-04-05T15:02:41.367Z,8.79
2023-04-05T15:07:45.052Z,9.18
2023-04-05T15:12:50.294Z,9.42
2023-04-05T15:17:55.770Z,9.48
2023-04-05T15:22:59.496Z,9.87
2023-04-05T15:28:04.733Z,10.21
2023-04-05T15:33:11.632Z,10.85
2023-04-05T15:38:16.007Z,11.41
2023-04-05T15:43:19.937Z,11.80
2023-04-05T15:48:26.410Z,12.04
2023-04-05T15:53:30.069Z,12.86
2023-04-05T15:58:33.759Z,13.39
2023-04-05T16:03:39.288Z,13.64
2023-04-05T16:08:43.251Z,14.04
2023-04-05T16:13:46.924Z,13.68
2023-04-05T16:18:52.229Z,13.83
2023-04-05T16:23:58.341Z,13.76
2023-04-05T16:29:02.229Z,14.24
2023-04-05T16:34:07.753Z,14.37
2023-04-05T16:39:11.431Z,14.72
2023-04-05T16:44:15.153Z,14.87
2023-04-05T16:49:21.463Z,15.23
2023-04-05T16:54:25.148Z,15.30
2023-04-05T16:59:28.862Z,15.49
2023-04-05T17:04:37.177Z,15.22
2023-04-05T17:09:41.328Z,15.26
2023-04-05T17:14:44.984Z,15.28
2023-04-05T17:19:50.331Z,15.35
2023-04-05T17:24:54.014Z,15.67
2023-04-05T17:29:57.633Z,15.96
2023-04-05T17:35:04.709Z,16.05
2023-04-05T17:40:09.519Z,16.02
2023-04-05T17:45:13.399Z,16.30
2023-04-05T17:50:18.840Z,16.14
2023-04-05T17:55:22.488Z,16.21
2023-04-05T18:00:26.321Z,16.80
2023-04-05T18:05:31.823Z,16.64
2023-04-05T18:10:35.489Z,16.60
2023-04-05T18:15:40.263Z,16.22
2023-04-05T18:20:45.580Z,16.21
2023-04-05T18:25:49.593Z,16.37
2023-04-05T18:30:53.289Z,16.37
2023-04-05T18:35:58.583Z,16.37
2023-04-05T18:41:02.917Z,16.46
2023-04-05T18:46:06.608Z,16.60
2023-04-05T18:51:12.867Z,16.76
2023-04-05T18:56:17.133Z,16.77
2023-04-05T19:01:20.902Z,16.89
2023-04-05T19:06:26.445Z,16.87
2023-04-05T19:11:30.073Z,16.75
2023-04-05T19:16:33.743Z,16.87
2023-04-05T19:21:39.072Z,17.11
2023-04-05T19:26:43.329Z,17.10
2023-04-05T19:31:47.827Z,16.85
2023-04-05T19:36:53.692Z,16.89
2023-04-05T19:41:56.712Z,17.28
2023-04-05T19:47:00.386Z,17.37
2023-04-05T19:52:08.009Z,17.27
2023-04-05T19:57:15.008Z,17.17
2023-04-05T20:02:36.353Z,17.01
2023-04-05T20:07:41.661Z,17.17
2023-04-05T20:12:45.304Z,17.11
2023-04-05T20:17:50.248Z,17.36
2023-04-05T20:22:55.546Z,17.46
2023-04-05T20:27:59.315Z,17.56
2023-04-05T20:33:03.597Z,17.67
2023-04-05T20:38:08.950Z,17.89
2023-04-05T20:43:12.591Z,17.61
2023-04-05T20:48:16.236Z,17.64
2023-04-05T20:53:21.576Z,17.61
2023-04-05T20:58:25.257Z,17.62
2023-04-05T21:03:29.558Z,17.88
2023-04-05T21:08:35.565Z,17.70
2023-04-05T21:13:39.504Z,17.84
2023-04-05T21:18:43.178Z,17.70
2023-04-05T21:23:48.461Z,17.77
2023-04-05T21:28:52.161Z,17.85
2023-04-05T21:33:55.804Z,17.96
2023-04-05T21:39:01.101Z,17.88
2023-04-05T21:44:04.776Z,17.80
2023-04-05T21:49:09.514Z,18.04
2023-04-05T21:54:14.977Z,17.80
2023-04-05T21:59:18.691Z,17.88
2023-04-05T22:04:23.425Z,18.12
2023-04-05T22:09:30.136Z,17.78
2023-04-05T22:14:33.820Z,17.96
2023-04-05T22:19:37.469Z,17.87
2023-04-05T22:24:43.051Z,17.75
2023-04-05T22:29:46.692Z,17.27
2023-04-05T22:34:50.335Z,17.78
2023-04-05T22:39:55.694Z,17.43
2023-04-05T22:44:59.350Z,16.93
2023-04-05T22:50:03.023Z,17.09
2023-04-05T22:55:09.829Z,17.20
2023-04-05T23:00:14.733Z,17.11
2023-04-05T23:05:18.495Z,17.01
2023-04-05T23:10:23.891Z,16.69
2023-04-05T23:15:27.595Z,16.72
2023-04-05T23:20:31.277Z,16.89
2023-04-05T23:25:36.602Z,16.88
2023-04-05T23:30:40.289Z,16.94
2023-04-05T23:35:43.988Z,16.97
2023-04-05T23:40:49.375Z,17.33
2023-04-05T23:45:52.994Z,17.61
2023-04-05T23:50:56.664Z,17.71
2023-04-05T23:56:03.043Z,17.62
